Theodore Francis Green State Airport

Airport
ICAO code: 
KPVD
Summary
ICAO Region: 
NAM
Territory: 
Location: 
Providence/Warwick, Rhode Island,
Serving: 
Providence
Coordinates: 
Aerial View: 
41° 43' 28.584" N, 71° 25' 31.165" W
Airport WX: 
Cumulonimbus
Metar
Observation
KPVD 040751Z AUTO 25004KT 10SM OVC110 M01/M08 A3009 RMK AO2 SLP189 T10061078
Station
Providence, Theodore Francis Green State Airport
Date/Time
2021-12-04 07:51:00
Wind direction
250°
Wind speed
04 kts
Lowest cloud amount
overcast
Temperature
-0.6°C
Dew point
-7.8°C
Humidity
58%
Weather condition
n/a

Description

The main airport serving Rhode Island is at Providence and is also known as Theodore Francis Green Memorial State Airport.

Climatology

Humid “subtropical”/Continental climate (Köppen climate classification Cfa/Dfa) - characterized by hot, humid summers and cool/cold winters. Significant amounts of precipitation occur in all seasons in most areas. Winter rainfall (and snowfall) is associated with large storms that the westerlies steer from west to east. Most summer rainfall occurs during thunderstorms.

Runways

Designator Length Width Surface Rops
16/34 1853 46 ASP Yes/Yes
5/23 2184 46 ASP Yes/Yes
Airport map: 
Aerial View: 

Accidents and Serious Incidents at or in the vicinity of KPVD

SKYbrary Partners:

Safety knowledge contributed by: